Boat of Garten, United Kingdom
Current Conditions -  °F | °C
As of 6:20 AM on Wednesday 26 Nov 2014 (Local Time) from EGPE Reporting Station
Moderate Fog Moderate Fog  
Wind Chill: -2°   Ceiling: Unl
Heat Index: -2°   Visibility: 4mi
Dew Point: -2°   Wind: 0mph
Humidity: 100%   Direction: NA
Pressure: 30"   Gusts: NA
Location:  57.25°N, 3.75°W
Report Text: EGPE 260620Z 00000KT 7000 VCFG FEW002 M02/M02 Q1016
Loading
Personal Weather Stations






























Interactive Weather Map New forecast layout! Learn more

10-Day Weather Forecast

Advertisements
Track Severe Weather on mobile